Time;durP1;ratioP1;P1;durP2;ratioP2;P2;SDS_P1;SDS_P2;PMS_P1;PMS_P2;Temp;Humidity;BMP_temperature;BMP_pressure;BME280_temperature;BME280_humidity;BME280_pressure;Samples;Min_cycle;Max_cycle;Signal;HPM_P1;HPM_P2
2022/11/11 00:02:04;;;;;;;;;;;;;;;19.31;64.87;102015.50;7401274;19;1730;-53
2022/11/11 00:04:35;;;;;;;;;;;;;;;19.28;65.06;102011.22;7403669;19;1524;-52
2022/11/11 00:07:03;;;;;;;;;;;;;;;19.27;65.15;102003.25;7402014;19;1786;-52
2022/11/11 00:09:31;;;;;;;;;;;;;;;19.29;65.23;102012.06;7402385;19;1010;-52
2022/11/11 00:12:00;;;;;;;;;;;;;;;19.30;65.27;101999.50;7399451;19;1881;-52
2022/11/11 00:14:28;;;;;;;;;;;;;;;19.27;65.39;101992.53;7401814;19;1681;-52
2022/11/11 00:25:10;;;;;;;;;;;;;;;19.25;65.99;101994.47;7402856;19;1692;-52
2022/11/11 00:27:40;;;;;;;;;;;;;;;19.26;65.84;101990.84;7402593;19;1728;-53
2022/11/11 00:30:09;;;;;;;;;;;;;;;19.29;65.85;101985.25;7400990;19;1688;-53
2022/11/11 00:32:38;;;;;;;;;;;;;;;19.26;65.94;101993.53;7400367;19;1871;-52
2022/11/11 00:37:50;;;;;;;;;;;;;;;19.27;65.78;102004.13;7401686;19;1657;-52
2022/11/11 00:40:18;;;;;;;;;;;;;;;19.28;65.78;102010.38;7401470;19;1899;-53
2022/11/11 00:42:46;;;;;;;;;;;;;;;19.25;65.77;101991.78;7401101;19;1732;-52
2022/11/11 00:45:15;;;;;;;;;;;;;;;19.24;65.68;101985.56;7399077;19;1771;-52
2022/11/11 00:53:10;;;;;;;;;;;;;;;19.23;66.27;101980.31;7400988;19;2055;-52
2022/11/11 00:55:39;;;;;;;;;;;;;;;19.22;66.16;101983.97;7398999;19;2035;-52
2022/11/11 00:58:07;;;;;;;;;;;;;;;19.25;65.86;101983.75;7402193;19;1869;-52
2022/11/11 01:00:35;;;;;;;;;;;;;;;19.23;66.07;101973.13;7397304;19;1548;-54
2022/11/11 01:03:03;;;;;;;;;;;;;;;19.23;65.85;101977.63;7399963;19;1364;-52
2022/11/11 01:05:34;;;;;;;;;;;;;;;19.24;65.83;101982.91;7399948;19;1078;-52
2022/11/11 01:08:02;;;;;;;;;;;;;;;19.22;65.99;101968.75;7397294;19;1991;-52
2022/11/11 01:10:40;;;;;;;;;;;;;;;19.23;65.96;101970.44;7401154;19;1340;-52
2022/11/11 01:13:15;;;;;;;;;;;;;;;19.20;65.84;101989.44;7398515;19;1850;-52
2022/11/11 01:15:44;;;;;;;;;;;;;;;19.24;65.79;101987.41;7400922;19;1669;-51
2022/11/11 01:18:13;;;;;;;;;;;;;;;19.20;66.08;101965.31;7401060;19;1849;-51
2022/11/11 01:20:44;;;;;;;;;;;;;;;19.22;65.99;101967.88;7398939;19;1016;-52
2022/11/11 01:23:13;;;;;;;;;;;;;;;19.21;65.99;101974.19;7404111;19;1799;-52
2022/11/11 01:25:42;;;;;;;;;;;;;;;19.20;65.81;101972.47;7405587;19;1625;-52
2022/11/11 01:28:11;;;;;;;;;;;;;;;19.19;65.94;101973.44;7408484;19;1573;-52
2022/11/11 01:30:39;;;;;;;;;;;;;;;19.17;66.08;101978.06;7406727;19;1552;-52
2022/11/11 01:33:07;;;;;;;;;;;;;;;19.20;65.95;101975.16;7406686;19;1850;-52
2022/11/11 01:35:39;;;;;;;;;;;;;;;19.19;66.21;101962.72;7407001;19;1003;-51
2022/11/11 01:38:10;;;;;;;;;;;;;;;19.19;66.00;101973.44;7406353;19;1770;-52
2022/11/11 01:40:42;;;;;;;;;;;;;;;19.18;65.88;101961.00;7406314;19;2299;-52
2022/11/11 01:43:24;;;;;;;;;;;;;;;19.18;66.20;101956.50;7408413;19;1673;-52
2022/11/11 01:45:54;;;;;;;;;;;;;;;19.18;66.15;101971.72;7406040;19;1427;-51
2022/11/11 01:51:10;;;;;;;;;;;;;;;19.20;66.10;101964.41;7406223;19;1229;-52
2022/11/11 01:53:41;;;;;;;;;;;;;;;19.15;65.93;101969.28;7406898;19;1855;-51
2022/11/11 01:56:11;;;;;;;;;;;;;;;19.15;65.98;101956.72;7409064;19;1008;-52
2022/11/11 01:58:39;;;;;;;;;;;;;;;19.16;65.95;101968.28;7406271;19;1811;-52
2022/11/11 02:01:08;;;;;;;;;;;;;;;19.16;65.93;101963.81;7406811;19;1473;-51
2022/11/11 02:03:40;;;;;;;;;;;;;;;19.66;64.96;101961.16;7406834;19;1932;-52
2022/11/11 02:06:05;;;;;;;;;;;;;;;20.00;63.93;101964.13;7407831;19;1664;-52
2022/11/11 02:08:35;;;;;;;;;;;;;;;19.99;63.60;101962.38;7403521;19;1507;-52
2022/11/11 02:11:07;;;;;;;;;;;;;;;20.34;63.25;101958.91;7407484;19;1705;-52
2022/11/11 02:16:20;;;;;;;;;;;;;;;20.64;62.18;101971.88;7405543;19;1229;-52
2022/11/11 02:18:48;;;;;;;;;;;;;;;20.78;61.86;101976.22;7406643;19;1944;-52
2022/11/11 02:21:23;;;;;;;;;;;;;;;20.79;62.13;101965.34;7405403;19;1384;-51
2022/11/11 02:24:00;;;;;;;;;;;;;;;20.78;62.14;101971.69;7407291;19;2205;-54
2022/11/11 02:26:29;;;;;;;;;;;;;;;20.74;61.94;101980.09;7404190;19;1314;-52
2022/11/11 02:28:58;;;;;;;;;;;;;;;20.84;61.73;101971.22;7407537;19;1663;-52
2022/11/11 02:31:29;;;;;;;;;;;;;;;20.80;61.84;101985.88;7406615;19;1695;-52
2022/11/11 02:33:57;;;;;;;;;;;;;;;20.89;61.99;101984.31;7404025;19;1865;-52
2022/11/11 02:36:25;;;;;;;;;;;;;;;20.86;61.96;101976.47;7403872;19;1516;-52
2022/11/11 02:38:56;;;;;;;;;;;;;;;20.82;62.04;101983.06;7406609;19;1586;-52
2022/11/11 02:44:05;;;;;;;;;;;;;;;20.79;62.11;101978.78;7405130;19;1534;-52
2022/11/11 02:46:33;;;;;;;;;;;;;;;20.81;62.17;101984.03;7407387;19;983;-52
2022/11/11 02:49:02;;;;;;;;;;;;;;;20.58;62.92;102004.56;7406209;19;1729;-52
2022/11/11 02:51:30;;;;;;;;;;;;;;;20.31;63.62;101988.69;7404486;19;1569;-52
2022/11/11 02:54:01;;;;;;;;;;;;;;;20.30;63.29;101984.31;7403683;19;1855;-52
2022/11/11 02:59:10;;;;;;;;;;;;;;;20.77;62.35;101995.97;7404829;19;1654;-52
2022/11/11 03:01:38;;;;;;;;;;;;;;;20.81;61.98;101992.09;7400327;19;1920;-68
2022/11/11 03:04:07;;;;;;;;;;;;;;;20.98;61.83;101983.59;7406544;19;1234;-68
2022/11/11 03:06:35;;;;;;;;;;;;;;;20.78;62.06;101987.81;7404126;19;934;-68
2022/11/11 03:09:06;;;;;;;;;;;;;;;20.62;62.71;101985.44;7404740;19;1639;-68
2022/11/11 03:11:37;;;;;;;;;;;;;;;20.81;62.09;101986.72;7407016;19;1345;-68
2022/11/11 03:14:06;;;;;;;;;;;;;;;20.94;61.91;101987.50;7406235;19;1852;-68
2022/11/11 03:19:16;;;;;;;;;;;;;;;20.99;62.00;101984.44;7408852;19;852;-68
2022/11/11 03:21:44;;;;;;;;;;;;;;;20.65;62.96;101989.72;7404308;19;1262;-68
2022/11/11 03:24:15;;;;;;;;;;;;;;;20.50;63.20;101997.09;7407629;19;1350;-68
2022/11/11 03:26:41;;;;;;;;;;;;;;;20.74;62.50;101990.88;7407525;19;1509;-68
2022/11/11 03:29:09;;;;;;;;;;;;;;;21.03;61.55;101976.03;7406624;19;1388;-68
2022/11/11 03:31:37;;;;;;;;;;;;;;;21.24;61.04;101978.00;7408985;19;1000;-68
2022/11/11 03:39:31;;;;;;;;;;;;;;;20.70;62.83;101986.69;7408715;19;1599;-68
2022/11/11 03:42:00;;;;;;;;;;;;;;;20.91;62.18;101990.44;7407844;19;1600;-68
2022/11/11 03:44:29;;;;;;;;;;;;;;;21.31;60.83;101983.75;7407010;19;1480;-68
2022/11/11 03:46:57;;;;;;;;;;;;;;;21.22;61.18;102002.31;7403117;19;1104;-68
2022/11/11 03:49:25;;;;;;;;;;;;;;;20.88;62.23;102003.25;7407740;19;1071;-68
2022/11/11 03:51:53;;;;;;;;;;;;;;;20.81;62.59;102008.22;7404340;19;1485;-68
2022/11/11 03:54:22;;;;;;;;;;;;;;;20.98;62.24;102010.47;7405414;19;1849;-68
2022/11/11 03:57:29;;;;;;;;;;;;;;;21.45;60.71;101986.25;7406042;19;1402;-68
2022/11/11 03:59:41;;;;;;;;;;;;;;;21.49;60.63;101987.72;7404913;19;1642;-68
2022/11/11 04:10:25;;;;;;;;;;;;;;;21.29;61.66;102010.78;7406506;19;1235;-68
2022/11/11 04:21:41;;;;;;;;;;;;;;;20.96;62.12;101990.91;7405233;19;1547;-67
2022/11/11 04:23:46;;;;;;;;;;;;;;;21.28;61.76;102005.53;7407414;19;1607;-68
2022/11/11 04:26:12;;;;;;;;;;;;;;;21.63;60.41;102000.94;7405014;19;1298;-68
2022/11/11 04:31:23;;;;;;;;;;;;;;;21.06;61.94;102010.75;7405859;19;1520;-68
2022/11/11 04:33:52;;;;;;;;;;;;;;;20.98;62.20;102012.31;7402802;19;1860;-68
2022/11/11 04:36:20;;;;;;;;;;;;;;;21.05;61.98;102014.41;7401869;19;1674;-68
2022/11/11 04:41:29;;;;;;;;;;;;;;;21.55;60.58;102029.44;7406441;19;1318;-68
2022/11/11 04:46:41;;;;;;;;;;;;;;;20.98;62.41;102036.53;7406681;19;1148;-68
2022/11/11 04:49:09;;;;;;;;;;;;;;;21.05;62.17;102037.78;7405511;19;985;-68
2022/11/11 04:54:18;;;;;;;;;;;;;;;21.49;61.26;102062.19;7401080;19;1862;-68
2022/11/11 04:56:47;;;;;;;;;;;;;;;21.21;61.93;102062.50;7403498;19;1482;-68
2022/11/11 04:59:19;;;;;;;;;;;;;;;20.96;62.44;102071.59;7403877;19;1303;-68
2022/11/11 05:04:28;;;;;;;;;;;;;;;21.28;61.63;102079.03;7406724;19;679;-70
2022/11/11 05:09:37;;;;;;;;;;;;;;;21.60;60.74;102075.69;7402932;19;1319;-70
2022/11/11 05:12:05;;;;;;;;;;;;;;;21.24;62.09;102088.31;7403451;19;1519;-70
2022/11/11 05:22:42;;;;;;;;;;;;;;;21.46;61.54;102117.13;7403015;19;1501;-69
2022/11/11 05:27:51;;;;;;;;;;;;;;;20.98;62.89;102112.66;7400047;19;1494;-68
2022/11/11 05:30:22;;;;;;;;;;;;;;;21.19;62.62;102125.47;7401560;19;1247;-68
2022/11/11 05:32:51;;;;;;;;;;;;;;;21.28;62.18;102124.75;7399538;19;1869;-69
2022/11/11 05:35:20;;;;;;;;;;;;;;;21.13;62.52;102131.28;7400506;19;1025;-69
2022/11/11 05:38:19;;;;;;;;;;;;;;;20.99;62.92;102110.81;7401127;19;1652;-70
2022/11/11 05:40:38;;;;;;;;;;;;;;;20.78;63.68;102127.59;7399780;19;1575;-69
2022/11/11 05:43:07;;;;;;;;;;;;;;;20.88;63.73;102129.63;7401722;19;1540;-69
2022/11/11 05:45:37;;;;;;;;;;;;;;;20.79;64.30;102128.47;7400632;19;1298;-68
2022/11/11 05:48:06;;;;;;;;;;;;;;;20.68;64.35;102147.22;7399576;19;1139;-70
2022/11/11 05:50:41;;;;;;;;;;;;;;;20.72;64.76;102151.41;7399748;19;1366;-69
2022/11/11 05:53:09;;;;;;;;;;;;;;;20.61;65.09;102147.69;7399345;19;1862;-69
2022/11/11 05:55:37;;;;;;;;;;;;;;;20.61;65.04;102153.06;7400833;19;1487;-66
2022/11/11 05:58:06;;;;;;;;;;;;;;;20.58;65.48;102157.75;7400113;19;1350;-68
2022/11/11 06:00:34;;;;;;;;;;;;;;;20.62;65.38;102148.53;7398733;19;1394;-70
2022/11/11 06:03:08;;;;;;;;;;;;;;;20.58;65.10;102149.69;7397595;19;1397;-69
2022/11/11 06:05:37;;;;;;;;;;;;;;;20.52;65.44;102147.47;7401208;19;1422;-69
2022/11/11 06:08:06;;;;;;;;;;;;;;;20.48;65.49;102148.66;7397362;19;1659;-62
2022/11/11 06:10:34;;;;;;;;;;;;;;;20.51;65.27;102160.03;7405418;19;1302;-64
2022/11/11 06:13:08;;;;;;;;;;;;;;;20.42;65.79;102155.34;7409383;19;1307;-68
2022/11/11 06:15:37;;;;;;;;;;;;;;;20.39;65.60;102143.00;7406059;19;1490;-68
2022/11/11 06:18:08;;;;;;;;;;;;;;;20.44;65.56;102161.44;7407635;19;1334;-61
2022/11/11 06:20:37;;;;;;;;;;;;;;;20.49;65.43;102161.97;7405940;19;948;-62
2022/11/11 06:23:06;;;;;;;;;;;;;;;20.64;65.39;102163.56;7407546;19;1690;-70
2022/11/11 06:28:16;;;;;;;;;;;;;;;20.42;66.05;102176.81;7408967;19;1483;-72
2022/11/11 06:30:45;;;;;;;;;;;;;;;20.39;66.19;102171.66;7407054;19;1508;-72
2022/11/11 06:33:16;;;;;;;;;;;;;;;20.44;66.13;102185.63;7405875;19;1871;-70
2022/11/11 06:35:45;;;;;;;;;;;;;;;20.38;66.34;102186.09;7407395;19;1360;-71
2022/11/11 06:38:13;;;;;;;;;;;;;;;20.24;66.84;102177.16;7406570;19;1714;-70
2022/11/11 06:40:43;;;;;;;;;;;;;;;20.21;66.97;102192.63;7406482;19;1469;-67
2022/11/11 06:43:12;;;;;;;;;;;;;;;20.18;66.92;102196.41;7409029;19;1508;-73
2022/11/11 06:45:40;;;;;;;;;;;;;;;20.20;66.93;102199.84;7407162;19;1378;-69
2022/11/11 06:48:09;;;;;;;;;;;;;;;20.14;67.29;102205.66;7405970;19;1516;-72
2022/11/11 06:50:39;;;;;;;;;;;;;;;20.18;66.60;102204.47;7407470;19;1370;-63
2022/11/11 06:53:08;;;;;;;;;;;;;;;20.17;67.32;102212.63;7406824;19;1465;-62
2022/11/11 06:55:36;;;;;;;;;;;;;;;20.09;66.98;102213.16;7405188;19;1852;-62
2022/11/11 06:58:08;;;;;;;;;;;;;;;20.11;67.26;102223.81;7404899;19;1306;-61
2022/11/11 07:00:37;;;;;;;;;;;;;;;20.08;66.90;102211.47;7404973;19;1412;-63
2022/11/11 07:03:05;;;;;;;;;;;;;;;20.07;67.00;102215.09;7398339;19;1107;-62
2022/11/11 07:05:34;;;;;;;;;;;;;;;20.08;67.46;102230.25;7404593;19;1489;-61
2022/11/11 07:08:06;;;;;;;;;;;;;;;20.10;68.62;102222.09;7405957;19;1634;-62
2022/11/11 07:10:35;;;;;;;;;;;;;;;20.16;68.11;102238.63;7402529;19;1218;-66
2022/11/11 07:13:04;;;;;;;;;;;;;;;20.18;68.32;102235.84;7406098;19;1504;-65
2022/11/11 07:15:33;;;;;;;;;;;;;;;20.19;68.94;102248.28;7402940;19;1884;-65
2022/11/11 07:18:01;;;;;;;;;;;;;;;20.18;68.73;102239.38;7406875;19;1358;-66
2022/11/11 07:20:30;;;;;;;;;;;;;;;20.18;68.97;102244.75;7403946;19;1071;-65
2022/11/11 07:22:58;;;;;;;;;;;;;;;20.20;70.13;102261.63;7405196;19;1376;-64
2022/11/11 07:25:29;;;;;;;;;;;;;;;20.13;69.26;102254.94;7404212;19;1560;-64
2022/11/11 07:27:57;;;;;;;;;;;;;;;20.04;68.02;102250.25;7405701;19;1385;-65
2022/11/11 07:30:25;;;;;;;;;;;;;;;19.79;68.19;102262.63;7405311;19;1475;-64
2022/11/11 07:32:54;;;;;;;;;;;;;;;19.82;65.81;102257.06;7406302;19;1408;-69
2022/11/11 07:35:23;;;;;;;;;;;;;;;19.88;67.29;102273.75;7404572;19;1854;-70
2022/11/11 07:37:51;;;;;;;;;;;;;;;19.86;67.39;102261.28;7405620;19;1358;-69
2022/11/11 07:40:20;;;;;;;;;;;;;;;19.88;67.19;102276.44;7406581;19;1341;-69
2022/11/11 07:42:51;;;;;;;;;;;;;;;19.86;67.57;102269.31;7405824;19;1544;-69
2022/11/11 07:45:20;;;;;;;;;;;;;;;19.83;67.60;102263.28;7405423;19;1354;-69
2022/11/11 07:47:48;;;;;;;;;;;;;;;19.82;67.43;102275.00;7405262;19;1130;-69
2022/11/11 07:50:17;;;;;;;;;;;;;;;19.81;67.38;102282.19;7406188;19;1011;-70
2022/11/11 07:52:49;;;;;;;;;;;;;;;19.78;67.58;102277.03;7405103;19;1707;-68
2022/11/11 07:55:18;;;;;;;;;;;;;;;19.82;67.53;102289.28;7404805;19;1869;-68
2022/11/11 07:57:47;;;;;;;;;;;;;;;19.79;67.13;102265.31;7405612;19;1406;-68
2022/11/11 08:00:18;;;;;;;;;;;;;;;19.76;67.26;102265.56;7405442;19;1544;-68
2022/11/11 08:02:48;;;;;;;;;;;;;;;19.74;67.11;102264.78;7402706;19;1559;-69
2022/11/11 08:05:17;;;;;;;;;;;;;;;19.76;67.27;102272.75;7401267;19;1024;-68
2022/11/11 08:07:45;;;;;;;;;;;;;;;19.75;67.15;102279.91;7404969;19;1614;-69
2022/11/11 08:10:14;;;;;;;;;;;;;;;19.73;67.08;102276.47;7402308;19;1362;-69
2022/11/11 08:15:26;;;;;;;;;;;;;;;19.68;66.98;102273.22;7402766;19;1860;-69
2022/11/11 08:17:55;;;;;;;;;;;;;;;19.66;67.17;102283.22;7404669;19;1401;-69
2022/11/11 08:20:23;;;;;;;;;;;;;;;19.68;67.23;102278.59;7401480;19;1004;-64
2022/11/11 08:22:54;;;;;;;;;;;;;;;19.75;67.25;102281.75;7403622;19;1429;-63
2022/11/11 08:25:22;;;;;;;;;;;;;;;19.72;67.21;102279.28;7404837;19;1362;-64
2022/11/11 08:27:50;;;;;;;;;;;;;;;19.68;67.38;102292.00;7404736;19;1331;-64
2022/11/11 08:30:19;;;;;;;;;;;;;;;19.67;67.36;102290.28;7404103;19;1196;-65
2022/11/11 08:32:50;;;;;;;;;;;;;;;19.65;67.55;102289.53;7401377;19;1528;-65
2022/11/11 08:35:18;;;;;;;;;;;;;;;19.65;68.00;102292.22;7402749;19;1867;-65
2022/11/11 08:37:46;;;;;;;;;;;;;;;19.59;67.82;102282.75;7402665;19;1457;-64
2022/11/11 08:40:15;;;;;;;;;;;;;;;19.61;68.08;102290.69;7403564;19;1453;-65
2022/11/11 08:42:43;;;;;;;;;;;;;;;19.64;67.62;102302.09;7404153;19;1299;-65
2022/11/11 08:45:12;;;;;;;;;;;;;;;19.68;67.94;102297.38;7402298;19;1607;-68
2022/11/11 08:47:40;;;;;;;;;;;;;;;19.69;67.73;102296.41;7401637;19;1362;-67
2022/11/11 08:50:11;;;;;;;;;;;;;;;19.68;67.71;102300.06;7403079;19;1005;-67
2022/11/11 08:52:40;;;;;;;;;;;;;;;19.64;67.41;102307.47;7404237;19;1226;-67
2022/11/11 08:55:08;;;;;;;;;;;;;;;19.62;67.23;102308.53;7403001;19;1862;-67
2022/11/11 08:57:37;;;;;;;;;;;;;;;19.59;67.53;102314.09;7401999;19;1421;-66
2022/11/11 09:00:06;;;;;;;;;;;;;;;19.61;67.67;102318.38;7403491;19;1455;-66
2022/11/11 09:02:34;;;;;;;;;;;;;;;19.62;67.56;102313.91;7402538;19;1274;-65
2022/11/11 09:05:03;;;;;;;;;;;;;;;19.64;67.42;102303.91;7404123;19;1073;-65
2022/11/11 09:07:34;;;;;;;;;;;;;;;19.60;67.32;102310.47;7403063;19;1428;-66
2022/11/11 09:10:02;;;;;;;;;;;;;;;19.57;67.80;102314.19;7402560;19;1547;-66
2022/11/11 09:12:30;;;;;;;;;;;;;;;19.57;67.73;102316.88;7401318;19;1525;-68
2022/11/11 09:15:00;;;;;;;;;;;;;;;19.54;67.66;102321.59;7400988;19;1868;-69
2022/11/11 09:17:29;;;;;;;;;;;;;;;19.55;67.73;102328.66;7404846;19;1191;-69
2022/11/11 09:19:58;;;;;;;;;;;;;;;19.57;68.34;102324.06;7404266;19;1330;-66
2022/11/11 09:22:26;;;;;;;;;;;;;;;19.53;67.54;102331.44;7401944;19;1214;-64
2022/11/11 09:24:57;;;;;;;;;;;;;;;19.50;68.19;102317.38;7402990;19;1610;-71
2022/11/11 09:27:26;;;;;;;;;;;;;;;19.50;67.77;102325.41;7402696;19;1346;-64
2022/11/11 09:29:54;;;;;;;;;;;;;;;19.48;68.22;102331.75;7401530;19;1100;-65
2022/11/11 09:32:22;;;;;;;;;;;;;;;19.46;67.89;102324.78;7403672;19;1347;-64
2022/11/11 09:34:51;;;;;;;;;;;;;;;19.48;67.98;102317.50;7402668;19;1858;-65
2022/11/11 09:37:19;;;;;;;;;;;;;;;19.47;68.26;102321.13;7399961;19;1197;-65
2022/11/11 09:39:47;;;;;;;;;;;;;;;19.48;68.41;102326.41;7402445;19;1397;-66
2022/11/11 09:42:20;;;;;;;;;;;;;;;19.48;68.14;102317.50;7401514;19;1247;-64
2022/11/11 09:45:03;;;;;;;;;;;;;;;19.51;68.13;102324.47;7408119;19;1551;-64
2022/11/11 09:47:37;;;;;;;;;;;;;;;19.45;68.61;102315.84;7409461;19;1350;-64
2022/11/11 09:50:06;;;;;;;;;;;;;;;19.47;68.52;102321.13;7411520;19;996;-65
2022/11/11 09:52:39;;;;;;;;;;;;;;;19.42;68.96;102313.38;7409201;19;1243;-65
2022/11/11 09:55:15;;;;;;;;;;;;;;;19.43;69.02;102315.09;7408183;19;1846;-65
2022/11/11 09:57:49;;;;;;;;;;;;;;;19.41;68.66;102321.53;7408057;19;1146;-64
2022/11/11 10:00:19;;;;;;;;;;;;;;;19.41;68.73;102327.75;7408341;19;1351;-65
2022/11/11 10:02:49;;;;;;;;;;;;;;;19.42;67.91;102324.13;7407188;19;1366;-64
2022/11/11 10:05:19;;;;;;;;;;;;;;;19.40;68.84;102322.50;7408603;19;1434;-64
2022/11/11 10:07:50;;;;;;;;;;;;;;;19.51;69.26;102327.16;7408642;19;1623;-65
2022/11/11 10:10:23;;;;;;;;;;;;;;;19.52;68.78;102319.00;7406385;19;1650;-69
2022/11/11 10:12:56;;;;;;;;;;;;;;;19.61;68.93;102312.16;7407844;19;1353;-63
2022/11/11 10:15:26;;;;;;;;;;;;;;;19.65;68.85;102311.00;7406818;19;1869;-63
2022/11/11 10:18:15;;;;;;;;;;;;;;;19.60;68.95;102321.19;7404822;19;1320;-64
2022/11/11 10:20:44;;;;;;;;;;;;;;;19.61;69.50;102320.22;7407135;19;1397;-64
2022/11/11 10:23:15;;;;;;;;;;;;;;;19.53;68.89;102312.66;7407002;19;1720;-64
2022/11/11 10:25:47;;;;;;;;;;;;;;;19.53;69.25;102309.13;7409122;19;1603;-63
2022/11/11 10:28:20;;;;;;;;;;;;;;;19.52;69.52;102308.28;7406026;19;1358;-63
2022/11/11 10:30:49;;;;;;;;;;;;;;;19.59;69.23;102332.88;7408347;19;1497;-64
2022/11/11 11:39:11;;;;;;;;;;;;;;;20.29;66.76;102302.25;7433129;19;1841;-52
2022/11/11 11:41:50;;;;;;;;;;;;;;;20.55;66.26;102312.03;7436780;19;1763;-52
2022/11/11 11:44:49;;;;;;;;;;;;;;;20.75;65.19;102316.03;7437608;19;2131;-52
2022/11/11 11:47:27;;;;;;;;;;;;;;;20.86;65.39;102307.19;7437259;19;1861;-51
2022/11/11 11:50:10;;;;;;;;;;;;;;;20.68;65.17;102319.25;7438559;19;958;-50
2022/11/11 11:52:44;;;;;;;;;;;;;;;20.54;65.44;102317.53;7438364;19;1567;-48
2022/11/11 11:55:25;;;;;;;;;;;;;;;20.53;65.32;102319.34;7438018;19;1023;-50
2022/11/11 11:57:59;;;;;;;;;;;;;;;20.70;64.92;102314.63;7434783;19;1810;-50
2022/11/11 12:00:30;;;;;;;;;;;;;;;20.36;66.06;102314.28;7438492;19;965;-51
2022/11/11 12:03:08;;;;;;;;;;;;;;;20.14;66.43;102323.81;7437681;19;1978;-50
2022/11/11 12:05:44;;;;;;;;;;;;;;;19.98;67.00;102304.38;7436891;19;1683;-51
2022/11/11 12:08:25;;;;;;;;;;;;;;;19.96;66.78;102314.34;7434533;19;2170;-50
2022/11/11 12:10:59;;;;;;;;;;;;;;;19.96;67.10;102312.50;7436742;19;2095;-50
2022/11/11 12:13:33;;;;;;;;;;;;;;;19.92;66.92;102315.53;7435929;19;1917;-50
2022/11/11 12:16:23;;;;;;;;;;;;;;;19.84;67.28;102302.63;7436671;19;1900;-49
2022/11/11 12:19:07;;;;;;;;;;;;;;;19.88;67.06;102314.00;7435877;19;1787;-49
2022/11/11 12:21:41;;;;;;;;;;;;;;;19.83;67.09;102307.09;7435315;19;2012;-48
2022/11/11 12:24:19;;;;;;;;;;;;;;;19.81;67.12;102313.53;7436029;19;1623;-49
2022/11/11 12:26:54;;;;;;;;;;;;;;;19.75;67.07;102303.22;7432725;19;1854;-48
2022/11/11 12:29:38;;;;;;;;;;;;;;;19.68;67.36;102303.59;7433564;19;2034;-49
2022/11/11 12:32:21;;;;;;;;;;;;;;;19.59;67.19;102308.72;7437555;19;1442;-48
2022/11/11 12:35:20;;;;;;;;;;;;;;;19.57;67.42;102295.41;7435569;19;1910;-48
2022/11/11 12:37:56;;;;;;;;;;;;;;;19.55;67.30;102301.84;7434700;19;1715;-48
2022/11/11 12:40:29;;;;;;;;;;;;;;;19.56;67.04;102304.44;7407235;19;1904;-48
2022/11/11 12:43:08;;;;;;;;;;;;;;;19.56;67.08;102306.25;7405223;19;1830;-49
2022/11/11 12:45:39;;;;;;;;;;;;;;;19.54;67.19;102306.34;7404349;19;1464;-49
2022/11/11 12:48:30;;;;;;;;;;;;;;;19.52;67.27;102292.19;7402650;19;1853;-49
2022/11/11 12:51:09;;;;;;;;;;;;;;;19.52;67.14;102302.03;7404335;19;1872;-49
2022/11/11 12:53:45;;;;;;;;;;;;;;;19.53;67.21;102298.41;7404267;19;1816;-48
2022/11/11 12:56:21;;;;;;;;;;;;;;;19.51;67.01;102301.19;7403413;19;1017;-48
2022/11/11 12:59:01;;;;;;;;;;;;;;;19.46;67.28;102298.81;7406418;19;1899;-49
2022/11/11 13:01:40;;;;;;;;;;;;;;;19.48;67.10;102306.75;7407181;19;1660;-49
2022/11/11 13:04:28;;;;;;;;;;;;;;;19.42;67.12;102302.66;7405821;19;1532;-49
2022/11/11 13:07:11;;;;;;;;;;;;;;;19.41;67.37;102317.00;7405408;19;1859;-49
2022/11/11 13:09:55;;;;;;;;;;;;;;;19.39;67.36;102310.03;7405893;19;1811;-48
2022/11/11 13:12:35;;;;;;;;;;;;;;;19.38;67.15;102317.22;7403475;19;1827;-49
2022/11/11 13:15:15;;;;;;;;;;;;;;;19.43;66.97;102320.47;7404298;19;1926;-49
2022/11/11 13:17:46;;;;;;;;;;;;;;;19.41;67.06;102302.75;7403121;19;1583;-48
2022/11/11 13:20:21;;;;;;;;;;;;;;;19.39;67.11;102304.66;7402852;19;1647;-49
2022/11/11 13:22:50;;;;;;;;;;;;;;;19.38;67.12;102301.13;7405913;19;1597;-48
2022/11/11 13:25:22;;;;;;;;;;;;;;;19.37;66.93;102303.91;7403964;19;1175;-48
2022/11/11 13:27:55;;;;;;;;;;;;;;;19.35;67.07;102314.75;7401444;19;1845;-49
2022/11/11 13:30:37;;;;;;;;;;;;;;;19.38;67.06;102316.38;7403442;19;1465;-49
2022/11/11 13:33:11;;;;;;;;;;;;;;;19.34;67.10;102314.84;7403966;19;1473;-49
2022/11/11 13:35:43;;;;;;;;;;;;;;;19.32;66.91;102328.38;7405488;19;1466;-49
2022/11/11 13:38:33;;;;;;;;;;;;;;;19.33;67.03;102335.44;7404055;19;1664;-49
2022/11/11 13:41:04;;;;;;;;;;;;;;;19.33;66.81;102329.22;7403760;19;1114;-49
2022/11/11 13:43:44;;;;;;;;;;;;;;;19.32;66.87;102327.47;7403651;19;1790;-49
2022/11/11 13:46:36;;;;;;;;;;;;;;;19.36;67.00;102335.25;7403747;19;1777;-49
2022/11/11 13:49:07;;;;;;;;;;;;;;;19.31;66.89;102348.09;7402600;19;1971;-48
2022/11/11 13:51:41;;;;;;;;;;;;;;;19.28;67.18;102338.44;7402103;19;1843;-49
2022/11/11 13:57:22;;;;;;;;;;;;;;;19.29;66.93;102344.66;7404999;19;1562;-50
2022/11/11 14:00:15;;;;;;;;;;;;;;;19.26;67.03;102339.50;7404006;19;1476;-50
2022/11/11 14:02:48;;;;;;;;;;;;;;;19.29;66.79;102344.66;7402455;19;1841;-50
2022/11/11 14:05:21;;;;;;;;;;;;;;;19.26;66.92;102350.22;7404325;19;1637;-51
2022/11/11 14:07:53;;;;;;;;;;;;;;;19.26;66.97;102352.91;7403846;19;1851;-49
2022/11/11 14:10:36;;;;;;;;;;;;;;;19.25;66.84;102335.06;7405439;19;1010;-49
2022/11/11 14:13:20;;;;;;;;;;;;;;;19.26;67.02;102336.81;7402453;19;1872;-49
2022/11/11 14:15:56;;;;;;;;;;;;;;;19.25;66.88;102333.25;7401476;19;1501;-49
2022/11/11 14:18:40;;;;;;;;;;;;;;;19.21;66.95;102328.19;7403494;19;1675;-49
2022/11/11 14:21:34;;;;;;;;;;;;;;;19.22;66.79;102321.88;7401158;19;1598;-49
2022/11/11 14:24:03;;;;;;;;;;;;;;;19.21;66.97;102330.88;7401942;19;2198;-49
2022/11/11 14:26:33;;;;;;;;;;;;;;;19.24;67.05;102330.69;7403248;19;1034;-49
2022/11/11 14:29:17;;;;;;;;;;;;;;;19.20;67.10;102345.22;7402049;19;2052;-50
2022/11/11 14:32:08;;;;;;;;;;;;;;;19.19;67.11;102340.84;7403798;19;1681;-50
2022/11/11 14:35:08;;;;;;;;;;;;;;;19.19;66.84;102338.16;7403813;19;2038;-50
2022/11/11 14:37:51;;;;;;;;;;;;;;;19.20;66.98;102339.84;7402818;19;1133;-49
2022/11/11 14:40:29;;;;;;;;;;;;;;;19.17;66.84;102334.72;7404418;19;1015;-49
2022/11/11 14:42:57;;;;;;;;;;;;;;;19.17;66.86;102332.03;7401100;19;1702;-49
2022/11/11 14:45:48;;;;;;;;;;;;;;;19.14;66.75;102329.53;7403891;19;1904;-49
2022/11/11 14:48:31;;;;;;;;;;;;;;;19.14;66.79;102337.56;7400675;19;1850;-49
2022/11/11 14:51:00;;;;;;;;;;;;;;;19.16;66.88;102332.97;7400910;19;1950;-49
2022/11/11 14:53:35;;;;;;;;;;;;;;;19.15;66.77;102336.63;7403262;19;1609;-49
2022/11/11 14:56:16;;;;;;;;;;;;;;;19.12;66.75;102347.53;7403597;19;988;-49
2022/11/11 14:58:45;;;;;;;;;;;;;;;19.11;66.79;102346.69;7402113;19;1939;-49
2022/11/11 15:01:16;;;;;;;;;;;;;;;19.16;66.77;102343.69;7402132;19;1696;-49
2022/11/11 15:03:48;;;;;;;;;;;;;;;19.13;66.85;102352.81;7400532;19;1575;-49
2022/11/11 15:06:20;;;;;;;;;;;;;;;19.12;66.78;102345.75;7400085;19;1760;-49
2022/11/11 15:09:00;;;;;;;;;;;;;;;19.11;66.60;102341.31;7399559;19;1849;-50
2022/11/11 15:11:35;;;;;;;;;;;;;;;19.12;66.90;102342.19;7398491;19;981;-49
2022/11/11 15:14:33;;;;;;;;;;;;;;;19.10;66.87;102341.41;7401704;19;1751;-49
2022/11/11 15:17:14;;;;;;;;;;;;;;;19.11;66.84;102351.19;7398040;19;1779;-49
2022/11/11 15:20:02;;;;;;;;;;;;;;;19.09;66.79;102343.25;7401350;19;2067;-50
2022/11/11 15:25:32;;;;;;;;;;;;;;;19.10;66.77;102355.72;7399740;19;1981;-49
2022/11/11 15:28:11;;;;;;;;;;;;;;;19.07;66.86;102335.28;7399875;19;2414;-49
2022/11/11 15:30:47;;;;;;;;;;;;;;;19.09;66.46;102348.59;7400018;19;1644;-49
2022/11/11 15:33:22;;;;;;;;;;;;;;;19.09;66.75;102343.25;7399597;19;1768;-49
2022/11/11 15:36:08;;;;;;;;;;;;;;;19.04;66.83;102338.19;7399659;19;1730;-49
2022/11/11 15:38:36;;;;;;;;;;;;;;;19.07;66.76;102354.06;7397709;19;1915;-49
2022/11/11 15:41:06;;;;;;;;;;;;;;;19.05;67.02;102347.94;7400744;19;1026;-49
2022/11/11 15:43:41;;;;;;;;;;;;;;;19.05;66.86;102365.84;7399933;19;1390;-49
2022/11/11 15:46:09;;;;;;;;;;;;;;;19.04;66.50;102346.22;7400634;19;2076;-49
2022/11/11 15:48:53;;;;;;;;;;;;;;;19.04;66.73;102348.06;7399161;19;2144;-49
2022/11/11 15:51:29;;;;;;;;;;;;;;;19.05;66.49;102347.94;7399936;19;2029;-49